Time;durP1;ratioP1;P1;durP2;ratioP2;P2;SDS_P1;SDS_P2;PMS_P1;PMS_P2;Temp;Humidity;BMP_temperature;BMP_pressure;BME280_temperature;BME280_humidity;BME280_pressure;Samples;Min_cycle;Max_cycle;Signal;HPM_P1;HPM_P2
2023/01/11 00:16:46;;;;;;;25.10;8.10;;;;;;;-6.65;100.00;100695.45;108037;1304;22262;-69
2023/01/11 00:19:13;;;;;;;22.40;7.30;;;;;;;-6.53;100.00;100697.07;109573;1288;22853;-69
2023/01/11 00:21:40;;;;;;;23.20;8.00;;;;;;;-6.42;100.00;100691.86;109545;1288;23007;-69
2023/01/11 00:24:07;;;;;;;20.70;7.30;;;;;;;-6.32;100.00;100698.66;109414;1279;233501;-69
2023/01/11 00:26:34;;;;;;;23.80;8.20;;;;;;;-6.24;100.00;100697.23;109673;1285;22216;-68
2023/01/11 00:29:01;;;;;;;18.50;7.10;;;;;;;-6.17;100.00;100693.86;109671;1286;22453;-69
2023/01/11 00:31:28;;;;;;;25.20;6.90;;;;;;;-6.11;100.00;100692.73;109736;1287;23664;-69
2023/01/11 00:33:55;;;;;;;22.70;7.50;;;;;;;-6.06;100.00;100693.38;109733;1286;22296;-69
2023/01/11 00:36:22;;;;;;;27.20;8.90;;;;;;;-6.01;100.00;100690.11;109811;1283;22247;-71
2023/01/11 00:38:53;;;;;;;;;;;;;;;-6.00;100.00;100688.81;109875;1282;22476;-68
2023/01/11 00:49:39;;;;;;;21.60;7.40;;;;;;;-5.98;100.00;100703.23;109850;1280;22594;-69
2023/01/11 00:52:07;;;;;;;20.20;7.70;;;;;;;-5.99;100.00;100700.31;109889;1281;22261;-69
2023/01/11 00:54:39;;;;;;;20.90;7.10;;;;;;;-5.98;100.00;100703.59;109962;1280;22493;-68
2023/01/11 00:57:06;;;;;;;22.00;7.40;;;;;;;-5.97;100.00;100698.92;109815;1281;23346;-68
2023/01/11 00:59:34;;;;;;;17.80;6.60;;;;;;;-5.97;100.00;100694.20;109808;1276;22475;-69
2023/01/11 01:02:02;;;;;;;17.70;7.20;;;;;;;-5.97;100.00;100691.33;109748;1278;22592;-68
2023/01/11 01:04:30;;;;;;;23.20;7.20;;;;;;;-5.97;100.00;100694.31;109991;1281;22440;-69
2023/01/11 01:06:57;;;;;;;21.80;7.00;;;;;;;-5.96;100.00;100697.98;109937;1279;22439;-69
2023/01/11 01:09:25;;;;;;;23.20;7.20;;;;;;;-5.95;100.00;100703.55;109932;1281;22160;-69
2023/01/11 01:11:51;;;;;;;17.30;6.60;;;;;;;-5.95;100.00;100709.48;110400;1276;22243;-68
2023/01/11 01:14:24;;;;;;;13.10;5.50;;;;;;;-5.96;100.00;100707.88;110363;1276;22303;-69
2023/01/11 01:16:52;;;;;;;18.20;5.70;;;;;;;-5.97;100.00;100709.22;110366;1276;22392;-69
2023/01/11 01:19:21;;;;;;;17.40;7.00;;;;;;;-5.96;100.00;100718.84;110282;1270;22328;-69
2023/01/11 01:21:49;;;;;;;14.50;5.90;;;;;;;-5.98;100.00;100714.94;110041;1271;22206;-68
2023/01/11 01:24:15;;;;;;;21.70;6.20;;;;;;;-6.01;100.00;100714.99;110323;1270;22341;-68
2023/01/11 01:26:42;;;;;;;19.50;6.10;;;;;;;-6.01;100.00;100718.27;110320;1276;22690;-68
2023/01/11 01:29:09;;;;;;;;;;;;;;;-6.02;100.00;100721.34;110345;1277;22492;-69
2023/01/11 01:31:36;;;;;;;23.00;6.80;;;;;;;-6.03;100.00;100722.13;110358;1276;22451;-68
2023/01/11 01:34:03;;;;;;;19.90;6.40;;;;;;;-6.01;100.00;100722.84;110364;1276;23364;-68
2023/01/11 01:36:30;;;;;;;20.90;6.40;;;;;;;-6.01;100.00;100719.96;110414;1275;23043;-68
2023/01/11 01:38:58;;;;;;;;;;;;;;;-6.03;100.00;100720.84;110449;1275;22527;-68
2023/01/11 01:41:26;;;;;;;16.40;6.20;;;;;;;-6.06;100.00;100714.77;110438;1274;22204;-69
2023/01/11 01:43:54;;;;;;;19.00;6.40;;;;;;;-6.12;100.00;100713.56;110407;1274;22231;-68
2023/01/11 01:46:22;;;;;;;20.50;6.90;;;;;;;-6.13;100.00;100721.29;110413;1274;22345;-68
2023/01/11 01:48:51;;;;;;;17.30;6.40;;;;;;;-6.12;100.00;100712.83;110445;1274;22547;-68
2023/01/11 01:51:25;;;;;;;22.40;5.70;;;;;;;-6.11;100.00;100717.19;110365;1275;22269;-68
2023/01/11 01:53:53;;;;;;;21.50;6.00;;;;;;;-6.12;100.00;100718.11;110415;1273;22443;-68
2023/01/11 01:56:29;;;;;;;15.20;6.20;;;;;;;-6.13;100.00;100714.48;110303;1271;22226;-68
2023/01/11 01:59:02;;;;;;;19.50;5.90;;;;;;;-6.13;100.00;100712.39;110224;1276;22335;-69
2023/01/11 02:01:47;;;;;;;17.30;5.40;;;;;;;-6.13;100.00;100716.33;110340;1274;22404;-69
2023/01/11 02:04:26;;;;;;;14.40;5.60;;;;;;;-6.14;100.00;100714.80;110417;1267;22369;-68
2023/01/11 02:06:58;;;;;;;17.60;6.80;;;;;;;-6.13;100.00;100712.25;110251;1276;22709;-69
2023/01/11 02:09:54;;;;;;;15.70;5.00;;;;;;;-6.10;100.00;100713.94;110348;1272;22222;-69
2023/01/11 02:12:21;;;;;;;17.60;5.40;;;;;;;-6.12;100.00;100724.13;110264;1276;22292;-69
2023/01/11 02:14:48;;;;;;;17.00;6.00;;;;;;;-6.12;100.00;100729.85;110394;1276;22269;-69
2023/01/11 02:17:15;;;;;;;15.10;6.20;;;;;;;-6.14;100.00;100733.72;110179;1276;22199;-69
2023/01/11 02:19:56;;;;;;;25.40;5.10;;;;;;;-6.15;100.00;100732.40;110368;1276;22503;-69
2023/01/11 02:22:47;;;;;;;19.10;5.60;;;;;;;-6.17;100.00;100740.41;110287;1269;22329;-69
2023/01/11 02:25:51;;;;;;;18.20;5.90;;;;;;;-6.16;100.00;100742.05;110432;1274;22260;-69
2023/01/11 02:28:30;;;;;;;21.60;9.40;;;;;;;-6.11;100.00;100744.45;110402;1274;22253;-69
2023/01/11 02:31:03;;;;;;;15.30;5.50;;;;;;;-6.11;100.00;100724.73;110383;1267;23120;-68
2023/01/11 02:33:32;;;;;;;20.30;6.40;;;;;;;-6.12;100.00;100718.46;110402;1273;22422;-70
2023/01/11 02:36:43;;;;;;;21.10;6.30;;;;;;;-6.14;100.00;100714.61;110448;1274;22404;-69
2023/01/11 02:39:51;;;;;;;23.10;6.50;;;;;;;-6.12;100.00;100726.61;110423;1275;22321;-69
2023/01/11 02:45:52;;;;;;;14.50;4.70;;;;;;;-6.17;100.00;100740.34;110402;1275;22246;-69
2023/01/11 02:48:22;;;;;;;12.70;4.50;;;;;;;-6.24;100.00;100740.16;110305;1276;22332;-69
2023/01/11 02:51:15;;;;;;;14.50;4.90;;;;;;;-6.30;100.00;100740.71;110298;1276;22443;-69
2023/01/11 02:53:53;;;;;;;18.00;4.70;;;;;;;-6.35;100.00;100739.74;110285;1276;22470;-69
2023/01/11 02:56:24;;;;;;;11.60;4.50;;;;;;;-6.35;100.00;100736.52;110296;1276;22438;-69
2023/01/11 02:58:52;;;;;;;9.10;4.60;;;;;;;-6.37;100.00;100730.20;110316;1273;22232;-69
2023/01/11 03:01:21;;;;;;;10.40;3.90;;;;;;;-6.40;100.00;100725.90;110337;1274;22284;-69
2023/01/11 03:03:49;;;;;;;11.10;4.60;;;;;;;-6.41;100.00;100726.51;110382;1269;22967;-69
2023/01/11 03:06:19;;;;;;;11.40;4.10;;;;;;;-6.40;100.00;100731.20;110431;1274;22272;-69
2023/01/11 03:09:09;;;;;;;13.60;4.50;;;;;;;-6.39;100.00;100735.15;110282;1276;22514;-69
2023/01/11 03:15:10;;;;;;;11.50;4.10;;;;;;;-6.44;100.00;100728.77;110377;1276;22214;-69
2023/01/11 03:17:40;;;;;;;10.30;4.20;;;;;;;-6.48;100.00;100733.54;110379;1270;22406;-69
2023/01/11 03:20:36;;;;;;;15.80;4.00;;;;;;;-6.53;100.00;100740.30;110394;1275;22245;-69
2023/01/11 03:23:35;;;;;;;11.80;3.90;;;;;;;-6.62;100.00;100738.46;110403;1276;23272;-69
2023/01/11 03:26:08;;;;;;;12.00;4.70;;;;;;;-6.70;100.00;100747.88;110098;1276;22272;-69
2023/01/11 03:28:57;;;;;;;14.50;3.90;;;;;;;-6.73;100.00;100754.52;110385;1276;22286;-69
2023/01/11 03:31:45;;;;;;;13.90;4.70;;;;;;;-6.70;100.00;100762.34;110390;1275;23162;-68
2023/01/11 03:34:22;;;;;;;13.30;4.50;;;;;;;-6.64;100.00;100762.85;110144;1275;22856;-68
2023/01/11 03:36:53;;;;;;;11.90;4.20;;;;;;;-6.62;100.00;100758.40;110433;1273;22453;-69
2023/01/11 03:39:45;;;;;;;8.70;4.20;;;;;;;-6.61;100.00;100760.27;110356;1276;22323;-69
2023/01/11 03:42:14;;;;;;;11.60;4.40;;;;;;;-6.67;100.00;100753.45;110237;1276;22241;-68
2023/01/11 03:44:45;;;;;;;11.60;4.10;;;;;;;-6.72;100.00;100748.88;110274;1276;22204;-69
2023/01/11 03:47:14;;;;;;;11.70;3.90;;;;;;;-6.77;100.00;100745.33;110269;1276;22981;-68
2023/01/11 10:08:23;;;;;;;26.70;11.10;;;;;;;-8.62;100.00;100786.58;103587;1305;544901;-69
2023/01/11 10:11:41;;;;;;;49.90;23.70;;;;;;;-8.26;100.00;100783.06;105835;1289;25399;-69
2023/01/11 10:14:37;;;;;;;32.00;13.30;;;;;;;-7.90;100.00;100781.83;106649;1289;22744;-69
2023/01/11 10:17:33;;;;;;;39.70;17.80;;;;;;;-7.63;100.00;100774.40;106508;1290;22552;-69
2023/01/11 10:20:45;;;;;;;92.70;41.90;;;;;;;-7.43;100.00;100766.19;106361;1287;241666;-69
2023/01/11 10:23:19;;;;;;;17.60;7.20;;;;;;;-7.35;100.00;100773.58;106565;1287;22596;-68
2023/01/11 10:25:53;;;;;;;27.60;9.30;;;;;;;-7.32;100.00;100766.96;106630;1287;22678;-69
2023/01/11 10:28:59;;;;;;;52.30;24.20;;;;;;;-7.27;100.00;100762.98;106557;1287;22578;-70
2023/01/11 10:31:47;;;;;;;33.70;15.40;;;;;;;-7.23;100.00;100753.11;106508;1287;25441;-69
2023/01/11 10:40:36;;;;;;;23.70;8.60;;;;;;;-7.60;100.00;100756.83;106514;1287;22574;-70
2023/01/11 10:43:15;;;;;;;18.10;7.80;;;;;;;-7.61;100.00;100767.33;106612;1286;22544;-69
2023/01/11 10:45:56;;;;;;;18.80;8.20;;;;;;;-7.54;100.00;100765.56;106713;1286;22528;-69
2023/01/11 10:48:26;;;;;;;16.40;7.80;;;;;;;-7.43;100.00;100761.02;109534;1287;22236;-70
2023/01/11 10:50:56;;;;;;;24.10;10.20;;;;;;;-7.30;100.00;100762.40;109498;1286;22630;-70
2023/01/11 10:53:23;;;;;;;33.80;15.10;;;;;;;-7.19;100.00;100760.54;109596;1287;22224;-70
2023/01/11 10:56:03;;;;;;;37.40;15.30;;;;;;;-7.06;100.00;100756.95;109511;1286;22457;-70
2023/01/11 10:58:46;;;;;;;28.00;12.40;;;;;;;-6.95;100.00;100756.35;109525;1286;22432;-70
2023/01/11 11:01:53;;;;;;;19.20;8.50;;;;;;;-6.85;100.00;100751.89;109602;1287;23135;-69
2023/01/11 11:04:55;;;;;;;19.20;9.50;;;;;;;-6.73;100.00;100741.20;109465;1287;22549;-70
2023/01/11 11:07:33;;;;;;;20.90;9.30;;;;;;;-6.54;100.00;100736.85;109490;1287;22427;-69
2023/01/11 11:10:24;;;;;;;19.30;9.60;;;;;;;-6.37;100.00;100736.03;109488;1287;23028;-70
2023/01/11 11:13:15;;;;;;;20.00;10.30;;;;;;;-6.22;100.00;100736.02;109540;1287;22269;-71
2023/01/11 11:15:49;;;;;;;17.60;8.50;;;;;;;-6.13;100.00;100736.41;109518;1286;22270;-70
2023/01/11 11:18:16;;;;;;;21.20;9.60;;;;;;;-6.09;100.00;100736.38;109580;1287;23365;-70
2023/01/11 11:20:45;;;;;;;19.10;9.00;;;;;;;-5.94;100.00;100736.48;109478;1283;22904;-70
2023/01/11 11:23:16;;;;;;;63.80;28.00;;;;;;;-5.79;100.00;100737.47;109884;1279;22264;-70
2023/01/11 11:26:03;;;;;;;25.60;9.80;;;;;;;-5.75;100.00;100729.81;109907;1280;23058;-70
2023/01/11 11:28:32;;;;;;;24.80;9.90;;;;;;;-5.83;100.00;100725.00;109964;1280;22253;-72
2023/01/11 11:31:00;;;;;;;23.00;9.00;;;;;;;-5.96;100.00;100725.01;110015;1277;22294;-72
2023/01/11 11:33:35;;;;;;;24.50;11.50;;;;;;;-6.06;100.00;100720.92;109961;1275;22966;-72
2023/01/11 11:36:10;;;;;;;19.10;9.10;;;;;;;-6.10;100.00;100729.44;109893;1280;22238;-72
2023/01/11 11:38:41;;;;;;;21.40;9.10;;;;;;;-6.17;100.00;100731.37;109899;1279;22401;-72
2023/01/11 11:41:10;;;;;;;22.60;9.80;;;;;;;-6.26;100.00;100734.82;109925;1279;22203;-72
2023/01/11 11:43:38;;;;;;;23.40;10.30;;;;;;;-6.26;100.00;100736.64;109956;1279;22345;-72
2023/01/11 11:46:14;;;;;;;20.90;9.50;;;;;;;-6.28;100.00;100738.92;109911;1279;22302;-72
2023/01/11 11:49:12;;;;;;;19.00;7.40;;;;;;;-6.18;100.00;100732.52;109989;1279;22746;-71
2023/01/11 11:51:38;;;;;;;23.60;9.40;;;;;;;-6.05;100.00;100719.46;109936;1279;22274;-72
2023/01/11 11:54:05;;;;;;;19.00;9.70;;;;;;;-5.99;100.00;100722.44;109951;1279;22340;-71
2023/01/11 11:56:33;;;;;;;19.40;9.30;;;;;;;-6.00;100.00;100715.48;109908;1279;22231;-71
2023/01/11 11:59:08;;;;;;;18.40;9.30;;;;;;;-6.01;100.00;100721.61;109990;1279;22278;-71
2023/01/11 12:01:36;;;;;;;23.30;11.10;;;;;;;-6.05;100.00;100733.41;109944;1279;22243;-71
2023/01/11 12:04:20;;;;;;;21.10;10.50;;;;;;;-6.03;100.00;100740.44;109907;1279;22257;-71
2023/01/11 16:27:51;;;;;;;55.40;22.70;;;;;;;-9.46;100.00;100809.73;103449;1305;545939;-70
2023/01/11 16:30:19;;;;;;;52.30;23.50;;;;;;;-9.25;100.00;100814.36;109383;1290;22531;-70
2023/01/11 16:32:46;;;;;;;43.10;19.50;;;;;;;-9.01;100.00;100819.16;109401;1290;23214;-70
2023/01/11 16:35:20;;;;;;;30.40;14.20;;;;;;;-8.81;100.00;100818.08;109427;1290;22241;-70
2023/01/11 16:37:57;;;;;;;27.20;12.60;;;;;;;-8.62;100.00;100820.39;109443;1290;22220;-70
2023/01/11 16:40:34;;;;;;;26.50;12.50;;;;;;;-8.43;100.00;100820.25;109191;1288;253605;-70
2023/01/11 16:43:16;;;;;;;35.00;14.90;;;;;;;-8.29;100.00;100818.58;109446;1288;22373;-70
2023/01/11 16:45:44;;;;;;;32.70;15.10;;;;;;;-8.25;100.00;100812.75;109468;1287;22390;-70
2023/01/11 16:48:12;;;;;;;44.70;20.80;;;;;;;-8.26;100.00;100807.71;109452;1288;23974;-70
2023/01/11 16:51:08;;;;;;;81.40;31.90;;;;;;;-8.26;100.00;100804.38;109394;1288;22851;-70
2023/01/11 16:53:37;;;;;;;48.70;20.40;;;;;;;-8.23;100.00;100809.26;109425;1289;22879;-70
2023/01/11 16:56:17;;;;;;;58.90;26.40;;;;;;;-8.22;100.00;100803.52;109449;1287;22302;-70
2023/01/11 16:59:23;;;;;;;38.80;17.70;;;;;;;-8.12;100.00;100796.88;109443;1288;22334;-70
2023/01/11 17:01:55;;;;;;;35.10;17.10;;;;;;;-7.96;100.00;100800.51;109510;1288;22389;-70
2023/01/11 17:04:26;;;;;;;37.90;16.90;;;;;;;-7.89;100.00;100797.46;109787;1284;22299;-70
2023/01/11 17:06:54;;;;;;;37.30;17.70;;;;;;;-7.82;100.00;100795.42;109717;1285;22293;-70
2023/01/11 17:09:21;;;;;;;37.60;17.20;;;;;;;-7.76;100.00;100793.46;108148;1285;25460;-70
2023/01/11 17:11:49;;;;;;;42.50;18.90;;;;;;;-7.70;100.00;100785.60;106037;1285;25336;-70
2023/01/11 17:14:29;;;;;;;37.40;19.80;;;;;;;-7.74;100.00;100781.17;105925;1284;22951;-70
2023/01/11 17:16:57;;;;;;;44.00;20.50;;;;;;;-7.81;100.00;100780.86;106032;1284;22558;-69
2023/01/11 17:19:34;;;;;;;44.50;23.20;;;;;;;-7.86;100.00;100785.14;106180;1284;24254;-70
2023/01/11 17:22:05;;;;;;;42.10;20.50;;;;;;;-7.91;100.00;100782.77;106031;1284;22565;-70
2023/01/11 17:24:39;;;;;;;37.60;17.20;;;;;;;-7.94;100.00;100786.04;106678;1276;25424;-70
2023/01/11 17:27:08;;;;;;;40.60;17.90;;;;;;;-7.95;100.00;100788.38;107271;1276;24241;-70
2023/01/11 17:29:37;;;;;;;31.00;15.40;;;;;;;-7.87;100.00;100786.02;106501;1276;22738;-70
2023/01/11 17:32:06;;;;;;;36.50;16.50;;;;;;;-7.82;100.00;100782.04;106573;1276;24238;-70
2023/01/11 17:34:34;;;;;;;31.60;15.10;;;;;;;-7.78;100.00;100784.17;106466;1270;22544;-69
2023/01/11 17:37:09;;;;;;;31.80;14.50;;;;;;;-7.73;100.00;100781.10;110055;1277;22278;-70
2023/01/11 17:39:38;;;;;;;35.60;15.00;;;;;;;-7.72;100.00;100785.04;110045;1277;22286;-70
2023/01/11 17:47:47;;;;;;;32.00;16.30;;;;;;;-7.91;100.00;100778.56;110101;1276;22271;-71
2023/01/11 17:50:30;;;;;;;38.80;16.70;;;;;;;-7.97;100.00;100773.13;110298;1276;22252;-71
2023/01/11 17:53:01;;;;;;;30.50;15.70;;;;;;;-7.91;100.00;100769.17;110187;1277;22438;-69
2023/01/11 17:55:28;;;;;;;27.90;13.60;;;;;;;-7.80;100.00;100767.76;110017;1277;22205;-70
2023/01/11 17:58:13;;;;;;;28.30;14.90;;;;;;;-7.76;100.00;100762.27;110217;1277;22221;-70
2023/01/11 18:00:42;;;;;;;33.00;14.30;;;;;;;-7.76;100.00;100763.67;110079;1277;22300;-71
2023/01/11 18:03:17;;;;;;;31.20;17.20;;;;;;;-7.85;100.00;100755.48;110113;1276;22305;-71
2023/01/11 18:05:44;;;;;;;35.10;17.20;;;;;;;-7.95;100.00;100744.42;110275;1276;22816;-70
2023/01/11 18:08:20;;;;;;;37.60;15.70;;;;;;;-8.04;100.00;100740.23;110237;1276;22234;-70
2023/01/11 18:10:53;;;;;;;32.50;14.90;;;;;;;-8.13;100.00;100730.86;110210;1276;22221;-71
2023/01/11 18:13:30;;;;;;;37.60;16.50;;;;;;;-8.21;100.00;100728.26;110277;1276;23300;-70
2023/01/11 18:15:57;;;;;;;33.00;13.70;;;;;;;-8.14;100.00;100723.61;108641;1276;22659;-70
2023/01/11 18:18:41;;;;;;;27.80;12.80;;;;;;;-8.09;100.00;100724.92;107165;1276;25395;-70
2023/01/11 18:21:24;;;;;;;26.40;12.80;;;;;;;-8.06;100.00;100730.14;107433;1276;25573;-70
2023/01/11 18:24:10;;;;;;;29.20;14.00;;;;;;;-8.13;100.00;100733.69;107357;1276;22551;-70
2023/01/11 18:26:41;;;;;;;30.60;14.90;;;;;;;-8.25;100.00;100731.95;107440;1276;22553;-70
2023/01/11 18:29:18;;;;;;;34.90;14.60;;;;;;;-8.36;100.00;100731.29;107591;1269;22523;-68
2023/01/11 18:31:45;;;;;;;28.60;14.00;;;;;;;-8.44;100.00;100730.61;107527;1276;23266;-69
2023/01/11 18:34:12;;;;;;;31.70;15.50;;;;;;;-8.52;100.00;100728.93;107659;1271;22905;-69
2023/01/11 18:36:39;;;;;;;32.30;14.30;;;;;;;-8.49;100.00;100729.63;107322;1276;22526;-69
2023/01/11 18:39:10;;;;;;;39.60;15.10;;;;;;;-8.42;100.00;100724.25;107467;1272;22544;-70
2023/01/11 18:44:23;;;;;;;28.70;12.90;;;;;;;-8.36;100.00;100720.09;107371;1271;22529;-69
2023/01/11 18:46:51;;;;;;;175.30;56.20;;;;;;;-8.44;100.00;100721.95;107389;1277;24295;-69
2023/01/11 18:49:18;;;;;;;37.40;16.90;;;;;;;-8.49;100.00;100720.31;107423;1275;22942;-68
2023/01/11 18:51:45;;;;;;;37.50;18.70;;;;;;;-8.56;100.00;100714.84;108706;1276;22368;-71
2023/01/11 18:54:14;;;;;;;33.50;14.80;;;;;;;-8.63;100.00;100705.40;110218;1274;22476;-70
2023/01/11 18:56:41;;;;;;;69.20;31.90;;;;;;;-8.69;100.00;100704.64;110087;1273;23106;-69
2023/01/11 18:59:08;;;;;;;31.90;14.90;;;;;;;-8.63;100.00;100703.66;110220;1271;23038;-69
2023/01/11 19:01:35;;;;;;;39.00;18.00;;;;;;;-8.57;100.00;100703.15;110235;1271;22344;-69
2023/01/11 19:04:22;;;;;;;37.60;16.80;;;;;;;-8.52;100.00;100698.89;110137;1269;22890;-69
2023/01/11 19:06:51;;;;;;;47.80;21.90;;;;;;;-8.50;100.00;100692.67;110221;1275;22261;-69
2023/01/11 19:09:18;;;;;;;35.00;15.90;;;;;;;-8.46;100.00;100689.77;110193;1271;22301;-69
2023/01/11 19:11:45;;;;;;;50.30;21.50;;;;;;;-8.47;100.00;100685.22;110197;1276;22281;-69
2023/01/11 19:14:11;;;;;;;46.00;20.20;;;;;;;-8.46;100.00;100681.77;110147;1277;22235;-69
2023/01/11 19:16:38;;;;;;;43.80;17.90;;;;;;;-8.48;100.00;100681.79;110229;1275;23031;-69
2023/01/11 19:19:05;;;;;;;44.80;20.80;;;;;;;-8.58;100.00;100674.16;110257;1276;22329;-69
2023/01/11 19:21:32;;;;;;;65.70;31.60;;;;;;;-8.70;100.00;100670.45;110159;1276;22238;-69
2023/01/11 19:23:59;;;;;;;53.90;26.20;;;;;;;-8.79;100.00;100668.34;110153;1271;22404;-68
2023/01/11 19:26:26;;;;;;;43.20;19.80;;;;;;;-8.84;100.00;100666.85;110147;1270;22367;-69
2023/01/11 19:28:53;;;;;;;42.80;18.90;;;;;;;-8.79;100.00;100672.59;110213;1275;22200;-69
2023/01/11 19:31:20;;;;;;;47.00;21.40;;;;;;;-8.73;100.00;100668.37;110182;1274;22288;-69
2023/01/11 19:33:47;;;;;;;35.80;19.20;;;;;;;-8.64;100.00;100663.08;110145;1276;22272;-69
2023/01/11 19:36:14;;;;;;;36.40;16.10;;;;;;;-8.54;100.00;100663.27;110016;1276;23165;-69
2023/01/11 19:38:42;;;;;;;41.10;19.30;;;;;;;-8.43;100.00;100666.06;110173;1272;23092;-69
2023/01/11 19:41:09;;;;;;;38.10;16.40;;;;;;;-8.35;100.00;100662.93;110217;1276;22353;-68
2023/01/11 19:43:43;;;;;;;37.50;17.00;;;;;;;-8.30;100.00;100664.95;110161;1277;22250;-68
2023/01/11 19:46:11;;;;;;;38.10;16.40;;;;;;;-8.35;100.00;100660.29;110244;1276;22265;-68
2023/01/11 19:48:39;;;;;;;38.80;17.20;;;;;;;-8.45;100.00;100654.27;110155;1274;22391;-69
2023/01/11 19:51:07;;;;;;;36.00;15.30;;;;;;;-8.51;100.00;100658.45;110266;1271;22349;-68
2023/01/11 19:53:34;;;;;;;37.30;17.00;;;;;;;-8.55;100.00;100663.38;110211;1275;22244;-68
2023/01/11 19:56:07;;;;;;;32.00;16.20;;;;;;;-8.58;100.00;100660.27;110294;1276;22239;-68
2023/01/11 19:58:37;;;;;;;33.90;15.00;;;;;;;-8.50;100.00;100659.24;110240;1276;22212;-68
2023/01/11 20:01:09;;;;;;;38.20;14.90;;;;;;;-8.39;100.00;100656.39;110279;1269;23974;-68
2023/01/11 20:03:39;;;;;;;35.20;15.90;;;;;;;-8.30;100.00;100654.56;110083;1275;22236;-69
2023/01/11 20:06:07;;;;;;;31.30;15.40;;;;;;;-8.22;100.00;100650.63;109842;1277;22535;-68
2023/01/11 20:08:37;;;;;;;31.50;15.40;;;;;;;-8.15;100.00;100654.29;107418;1276;25379;-68
